Time;durP1;ratioP1;P1;durP2;ratioP2;P2;SDS_P1;SDS_P2;PMS_P1;PMS_P2;Temp;Humidity;BMP_temperature;BMP_pressure;BME280_temperature;BME280_humidity;BME280_pressure;Samples;Min_cycle;Max_cycle;Signal;HPM_P1;HPM_P2
2023/06/20 00:00:10;;;;;;;13.27;12.20;;;17.80;99.90;;;;;;4987333;28;20548;-57
2023/06/20 00:02:39;;;;;;;12.83;11.63;;;17.70;99.90;;;;;;4990663;28;20514;-57
2023/06/20 00:05:07;;;;;;;13.30;12.20;;;17.70;99.90;;;;;;4988597;28;20489;-61
2023/06/20 00:07:36;;;;;;;13.40;12.20;;;17.60;99.90;;;;;;4991455;28;20479;-57
2023/06/20 00:10:05;;;;;;;12.97;11.97;;;17.60;99.90;;;;;;4988759;28;21020;-59
2023/06/20 00:12:33;;;;;;;13.47;12.37;;;17.60;99.90;;;;;;4992403;28;21174;-57
2023/06/20 00:15:01;;;;;;;13.67;12.57;;;17.60;99.90;;;;;;4991794;28;20959;-57
2023/06/20 00:17:29;;;;;;;12.43;11.50;;;17.50;99.90;;;;;;4984286;28;21153;-57
2023/06/20 00:19:57;;;;;;;12.70;11.70;;;17.50;99.90;;;;;;4988139;28;20470;-57
2023/06/20 00:22:25;;;;;;;12.17;11.27;;;17.50;99.90;;;;;;5001790;28;20496;-58
2023/06/20 00:24:54;;;;;;;12.30;11.30;;;17.50;99.90;;;;;;4998049;28;20491;-58
2023/06/20 00:27:22;;;;;;;12.90;11.80;;;17.50;99.90;;;;;;5004435;28;20591;-57
2023/06/20 00:29:50;;;;;;;14.90;13.63;;;17.50;99.90;;;;;;4995415;28;20502;-57
2023/06/20 00:32:18;;;;;;;12.60;11.60;;;17.40;99.90;;;;;;4985861;28;20488;-57
2023/06/20 00:34:46;;;;;;;14.77;13.60;;;17.30;99.90;;;;;;4995382;28;21010;-57
2023/06/20 00:37:14;;;;;;;13.83;12.70;;;17.30;99.90;;;;;;4989650;28;20473;-57
2023/06/20 00:39:42;;;;;;;13.87;12.47;;;17.30;99.90;;;;;;4993519;28;20488;-64
2023/06/20 00:42:19;;;;;;;14.33;13.20;;;17.20;99.90;;;;;;4992540;28;20539;-57
2023/06/20 00:44:47;;;;;;;12.97;11.87;;;17.20;99.90;;;;;;4988010;28;20502;-57
2023/06/20 00:47:16;;;;;;;14.33;13.17;;;17.20;99.90;;;;;;4992158;28;20563;-57
2023/06/20 00:49:46;;;;;;;15.00;13.60;;;17.20;99.90;;;;;;4984872;28;20512;-56
2023/06/20 00:52:15;;;;;;;13.00;11.73;;;17.10;99.90;;;;;;4986910;28;20619;-57
2023/06/20 00:54:44;;;;;;;13.20;12.20;;;17.10;99.90;;;;;;4989239;28;20904;-57
2023/06/20 00:57:14;;;;;;;13.67;12.57;;;17.10;99.90;;;;;;4990490;28;20536;-57
2023/06/20 00:59:45;;;;;;;13.23;12.23;;;17.10;99.90;;;;;;4991773;28;20663;-57
2023/06/20 01:02:14;;;;;;;13.60;12.47;;;17.10;99.90;;;;;;4981553;28;20488;-57
2023/06/20 01:04:45;;;;;;;13.30;12.30;;;17.10;99.90;;;;;;4983863;28;20496;-57
2023/06/20 01:07:19;;;;;;;13.93;12.80;;;17.00;99.90;;;;;;4988267;28;20512;-57
2023/06/20 01:09:56;;;;;;;15.20;13.80;;;17.00;99.90;;;;;;4983668;28;20902;-56
2023/06/20 01:12:31;;;;;;;14.20;13.03;;;17.00;99.90;;;;;;4994059;28;20493;-57
2023/06/20 01:15:11;;;;;;;14.20;12.97;;;16.90;99.90;;;;;;4998403;28;20862;-57
2023/06/20 01:17:46;;;;;;;13.93;12.77;;;16.90;99.90;;;;;;4998566;28;20497;-57
2023/06/20 01:20:16;;;;;;;13.87;12.67;;;16.90;99.90;;;;;;4995491;28;20479;-57
2023/06/20 01:22:57;;;;;;;13.53;12.43;;;16.90;99.90;;;;;;4996873;28;20588;-57
2023/06/20 01:25:33;;;;;;;13.30;12.20;;;16.90;99.90;;;;;;4998574;28;21195;-58
2023/06/20 01:28:09;;;;;;;14.07;12.87;;;16.90;99.90;;;;;;4992925;28;20477;-58
2023/06/20 01:30:45;;;;;;;14.80;13.33;;;16.80;99.90;;;;;;4993887;28;20526;-58
2023/06/20 01:33:16;;;;;;;14.30;13.00;;;16.80;99.90;;;;;;4998315;28;20484;-58
2023/06/20 01:35:47;;;;;;;13.67;12.47;;;16.80;99.90;;;;;;4989832;28;20559;-57
2023/06/20 01:38:18;;;;;;;14.30;13.10;;;16.70;99.90;;;;;;4995730;28;20491;-58
2023/06/20 01:40:49;;;;;;;14.67;13.37;;;16.70;99.90;;;;;;4992258;28;20491;-58
2023/06/20 01:43:19;;;;;;;14.27;13.07;;;16.70;99.90;;;;;;4993983;28;20991;-57
2023/06/20 01:45:51;;;;;;;14.00;12.80;;;16.70;99.90;;;;;;4981339;28;20982;-57
2023/06/20 01:48:23;;;;;;;14.87;13.57;;;16.70;99.90;;;;;;4989529;28;20997;-57
2023/06/20 01:50:53;;;;;;;14.57;13.30;;;16.60;99.90;;;;;;4987886;28;20515;-58
2023/06/20 01:53:25;;;;;;;13.67;12.47;;;16.60;99.90;;;;;;4983577;28;21268;-58
2023/06/20 01:55:53;;;;;;;14.83;13.60;;;16.60;99.90;;;;;;4984918;28;20464;-57
2023/06/20 01:58:23;;;;;;;13.10;11.90;;;16.60;99.90;;;;;;4987101;28;20875;-57
2023/06/20 02:00:52;;;;;;;14.87;13.47;;;16.60;99.90;;;;;;4991913;28;20524;-58
2023/06/20 02:03:20;;;;;;;15.17;13.87;;;16.50;99.90;;;;;;4994542;28;20571;-58
2023/06/20 02:05:49;;;;;;;14.23;13.03;;;16.50;99.90;;;;;;4986263;28;21667;-58
2023/06/20 02:08:19;;;;;;;14.50;13.40;;;16.40;99.90;;;;;;4987558;28;20591;-58
2023/06/20 02:10:49;;;;;;;14.87;13.60;;;16.40;99.90;;;;;;4981244;28;20501;-57
2023/06/20 02:13:17;;;;;;;13.63;12.53;;;16.40;99.90;;;;;;4985916;28;20468;-58
2023/06/20 02:15:47;;;;;;;14.87;13.47;;;16.40;99.90;;;;;;4992238;28;20994;-56
2023/06/20 02:18:15;;;;;;;15.03;13.63;;;16.40;99.90;;;;;;4988871;28;20551;-57
2023/06/20 02:20:43;;;;;;;13.23;12.20;;;16.40;99.90;;;;;;4988781;28;20465;-61
2023/06/20 02:23:12;;;;;;;14.67;13.53;;;16.40;99.90;;;;;;4992771;28;20472;-57
2023/06/20 02:25:44;;;;;;;14.97;13.77;;;16.30;99.90;;;;;;4994123;28;20484;-57
2023/06/20 02:28:16;;;;;;;16.90;15.40;;;16.40;99.90;;;;;;4993611;28;20503;-57
2023/06/20 02:30:45;;;;;;;16.10;14.70;;;16.30;99.90;;;;;;4995963;28;20814;-57
2023/06/20 02:33:15;;;;;;;16.67;15.27;;;16.30;99.90;;;;;;5006133;28;20471;-57
2023/06/20 02:35:44;;;;;;;16.30;14.83;;;16.20;99.90;;;;;;5012988;28;20549;-57
2023/06/20 02:38:13;;;;;;;15.27;14.07;;;16.20;99.90;;;;;;5010032;28;20499;-64
2023/06/20 02:40:41;;;;;;;14.83;13.63;;;16.20;99.90;;;;;;4998416;28;20474;-57
2023/06/20 02:43:09;;;;;;;14.30;13.13;;;16.20;99.90;;;;;;5000033;28;20488;-57
2023/06/20 02:45:39;;;;;;;14.27;13.17;;;16.10;99.90;;;;;;5009713;28;20492;-56
2023/06/20 02:48:29;;;;;;;14.73;13.53;;;16.10;99.90;;;;;;5014893;28;20473;-57
2023/06/20 02:51:06;;;;;;;14.53;13.33;;;16.10;99.90;;;;;;5007876;28;20556;-57
2023/06/20 02:53:44;;;;;;;14.57;13.37;;;16.10;99.90;;;;;;5006411;28;20519;-57
2023/06/20 02:56:14;;;;;;;15.20;13.90;;;16.10;99.90;;;;;;5015777;28;20486;-59
2023/06/20 02:58:46;;;;;;;15.17;13.77;;;16.10;99.90;;;;;;5009090;28;20503;-57
2023/06/20 03:01:23;;;;;;;14.70;13.43;;;16.10;99.90;;;;;;5007932;28;20516;-56
2023/06/20 03:03:54;;;;;;;15.10;13.80;;;16.10;99.90;;;;;;5016718;28;20530;-57
2023/06/20 03:06:27;;;;;;;16.33;14.93;;;16.10;99.90;;;;;;5004816;28;20460;-56
2023/06/20 03:08:57;;;;;;;15.13;13.93;;;16.10;99.90;;;;;;5007901;28;20469;-56
2023/06/20 03:11:25;;;;;;;15.17;13.87;;;16.00;99.90;;;;;;5008575;28;21041;-57
2023/06/20 03:13:53;;;;;;;14.80;13.60;;;16.10;99.90;;;;;;5013093;28;20485;-56
2023/06/20 03:16:26;;;;;;;14.27;13.07;;;16.00;99.90;;;;;;5015448;28;20488;-57
2023/06/20 03:18:54;;;;;;;14.80;13.60;;;16.00;99.90;;;;;;4998444;28;20475;-57
2023/06/20 03:21:23;;;;;;;14.80;13.70;;;16.00;99.90;;;;;;5000596;28;20493;-57
2023/06/20 03:23:56;;;;;;;15.03;13.80;;;16.00;99.90;;;;;;4998843;28;21033;-56
2023/06/20 03:26:25;;;;;;;15.43;14.03;;;16.00;99.90;;;;;;5000307;28;20789;-57
2023/06/20 03:28:53;;;;;;;15.27;13.97;;;16.00;99.90;;;;;;4994307;28;21043;-56
2023/06/20 03:31:22;;;;;;;15.77;14.43;;;16.00;99.90;;;;;;4993781;28;21037;-57
2023/06/20 03:33:50;;;;;;;15.40;13.90;;;16.00;99.90;;;;;;4998168;28;20503;-57
2023/06/20 03:36:18;;;;;;;14.87;13.67;;;16.00;99.90;;;;;;4995779;28;20889;-57
2023/06/20 03:38:46;;;;;;;15.20;13.90;;;16.00;99.90;;;;;;4991710;28;20476;-56
2023/06/20 03:41:14;;;;;;;14.87;13.67;;;16.00;99.90;;;;;;4987744;28;20574;-56
2023/06/20 03:43:42;;;;;;;15.10;13.80;;;16.10;99.90;;;;;;4994615;28;20528;-56
2023/06/20 03:46:10;;;;;;;15.17;13.80;;;16.10;99.90;;;;;;4995280;28;22529;-57
2023/06/20 03:48:39;;;;;;;14.67;13.47;;;16.10;99.90;;;;;;4991051;28;20483;-56
2023/06/20 03:51:07;;;;;;;15.70;14.40;;;16.10;99.90;;;;;;4987310;28;21056;-56
2023/06/20 03:53:35;;;;;;;15.97;14.57;;;16.20;99.90;;;;;;4977049;28;20586;-56
2023/06/20 03:56:04;;;;;;;16.63;15.13;;;16.20;99.90;;;;;;4990516;28;21027;-57
2023/06/20 03:58:32;;;;;;;15.83;14.53;;;16.20;99.90;;;;;;4985978;28;20862;-56
2023/06/20 04:01:00;;;;;;;16.20;14.90;;;16.20;99.90;;;;;;4987884;28;20469;-57
2023/06/20 04:03:28;;;;;;;15.70;14.47;;;16.30;99.90;;;;;;4987548;28;20991;-56
2023/06/20 04:06:01;;;;;;;15.97;14.63;;;16.30;99.90;;;;;;4985668;28;20899;-57
2023/06/20 04:08:29;;;;;;;16.37;14.87;;;16.40;99.90;;;;;;4981843;28;20559;-57
2023/06/20 04:10:57;;;;;;;16.20;14.73;;;16.40;99.90;;;;;;4987266;28;20475;-57
2023/06/20 04:13:27;;;;;;;15.80;14.23;;;16.50;99.90;;;;;;4985915;28;20492;-56
2023/06/20 04:15:56;;;;;;;15.47;14.17;;;16.50;99.90;;;;;;4989125;28;20476;-57
2023/06/20 04:18:24;;;;;;;14.87;13.43;;;16.60;99.90;;;;;;4992864;28;20508;-57
2023/06/20 04:20:52;;;;;;;15.60;14.10;;;16.70;99.90;;;;;;4991953;28;20555;-57
2023/06/20 04:23:21;;;;;;;15.60;14.30;;;16.70;99.90;;;;;;4992220;28;20477;-57
2023/06/20 04:25:49;;;;;;;15.67;14.37;;;16.70;99.90;;;;;;4979310;28;20464;-56
2023/06/20 04:28:17;;;;;;;16.40;15.00;;;16.80;99.90;;;;;;4991475;28;20584;-57
2023/06/20 04:30:45;;;;;;;15.07;13.70;;;16.80;99.90;;;;;;4986913;28;20469;-60
2023/06/20 04:33:13;;;;;;;14.37;13.20;;;16.80;99.90;;;;;;4986438;28;20893;-57
2023/06/20 04:35:42;;;;;;;15.93;14.47;;;16.90;99.90;;;;;;4983684;28;22047;-57
2023/06/20 04:38:10;;;;;;;14.60;13.30;;;16.90;99.90;;;;;;4987795;28;20593;-56
2023/06/20 04:40:39;;;;;;;15.27;14.07;;;16.90;99.90;;;;;;4987303;28;20603;-57
2023/06/20 04:43:07;;;;;;;15.20;14.00;;;17.00;99.90;;;;;;4985037;28;20576;-57
2023/06/20 04:45:38;;;;;;;14.80;13.60;;;17.00;99.90;;;;;;4989529;28;20615;-57
2023/06/20 04:48:06;;;;;;;14.60;13.43;;;17.10;99.90;;;;;;4990183;28;20477;-57
2023/06/20 04:50:35;;;;;;;14.93;13.73;;;17.10;99.90;;;;;;4989958;28;20590;-58
2023/06/20 04:53:03;;;;;;;15.73;14.00;;;17.20;99.90;;;;;;4981642;28;20484;-57
2023/06/20 04:55:31;;;;;;;15.03;13.73;;;17.20;99.90;;;;;;4990554;28;20510;-56
2023/06/20 04:58:00;;;;;;;14.73;13.50;;;17.20;99.90;;;;;;4990396;28;21108;-57
2023/06/20 05:00:28;;;;;;;14.73;13.53;;;17.30;99.90;;;;;;4997170;28;20496;-59
2023/06/20 05:02:58;;;;;;;14.23;13.07;;;17.30;99.90;;;;;;4996739;28;20508;-58
2023/06/20 05:05:29;;;;;;;13.67;12.57;;;17.40;99.90;;;;;;4989535;28;20487;-57
2023/06/20 05:07:57;;;;;;;14.23;12.40;;;17.40;99.90;;;;;;4985412;28;20476;-57
2023/06/20 05:10:26;;;;;;;13.90;12.63;;;17.50;99.90;;;;;;4979091;28;20508;-57
2023/06/20 05:12:55;;;;;;;13.63;12.50;;;17.60;99.90;;;;;;4983723;28;20496;-57
2023/06/20 05:15:24;;;;;;;12.87;11.87;;;17.70;99.90;;;;;;4990829;28;20507;-56
2023/06/20 05:17:53;;;;;;;13.50;12.30;;;17.80;99.90;;;;;;4986783;28;20672;-57
2023/06/20 05:20:21;;;;;;;12.83;11.73;;;17.80;99.90;;;;;;4996606;28;20939;-57
2023/06/20 05:22:50;;;;;;;12.00;11.00;;;17.90;99.90;;;;;;4991765;28;20484;-58
2023/06/20 05:25:18;;;;;;;12.20;11.30;;;18.00;99.90;;;;;;4997441;28;20550;-57
2023/06/20 05:27:47;;;;;;;10.87;9.80;;;18.10;99.90;;;;;;4993718;28;20528;-57
2023/06/20 05:30:15;;;;;;;12.13;11.13;;;18.20;99.90;;;;;;4988485;28;21205;-57
2023/06/20 05:32:45;;;;;;;11.20;10.30;;;18.30;99.90;;;;;;4988875;28;20520;-57
2023/06/20 05:35:13;;;;;;;11.07;10.27;;;18.40;99.90;;;;;;4997940;28;20866;-56
2023/06/20 05:37:45;;;;;;;10.43;9.40;;;18.50;99.90;;;;;;4993654;28;20509;-55
2023/06/20 05:40:15;;;;;;;10.10;9.20;;;18.60;99.90;;;;;;4993837;28;20469;-57
2023/06/20 05:42:43;;;;;;;10.43;9.63;;;18.70;99.90;;;;;;4985462;28;20492;-57
2023/06/20 05:45:12;;;;;;;9.80;9.00;;;18.70;99.90;;;;;;4985043;28;20537;-57
2023/06/20 05:47:40;;;;;;;9.27;8.57;;;18.90;99.90;;;;;;4990179;28;20479;-56
2023/06/20 05:50:10;;;;;;;9.00;8.30;;;18.90;99.90;;;;;;4981887;28;20469;-56
2023/06/20 05:52:38;;;;;;;8.37;7.67;;;19.00;99.90;;;;;;4985068;28;21164;-57
2023/06/20 05:55:07;;;;;;;7.70;7.10;;;19.10;99.90;;;;;;4990741;28;20627;-56
2023/06/20 05:57:35;;;;;;;7.70;6.87;;;19.10;99.90;;;;;;4997251;28;20467;-57
2023/06/20 06:00:11;;;;;;;7.53;6.93;;;19.20;99.90;;;;;;4994197;28;20475;-57
2023/06/20 06:02:39;;;;;;;7.00;6.50;;;19.20;99.90;;;;;;4994474;28;20579;-57
2023/06/20 06:05:09;;;;;;;7.23;6.73;;;19.30;99.90;;;;;;4996002;28;20496;-57
2023/06/20 06:07:38;;;;;;;7.77;7.20;;;19.30;99.90;;;;;;4987881;28;20974;-57
2023/06/20 06:10:08;;;;;;;7.57;7.03;;;19.30;99.90;;;;;;4995776;28;21040;-57
2023/06/20 06:12:36;;;;;;;7.67;6.97;;;19.30;99.90;;;;;;4985224;28;20504;-57
2023/06/20 06:15:05;;;;;;;7.23;6.73;;;19.30;99.90;;;;;;4987871;28;20496;-56
2023/06/20 06:17:33;;;;;;;7.20;6.60;;;19.30;99.90;;;;;;4985071;28;21041;-57
2023/06/20 06:20:03;;;;;;;7.30;6.70;;;19.40;99.90;;;;;;4991703;28;20483;-57
2023/06/20 06:22:33;;;;;;;6.70;6.20;;;19.50;99.90;;;;;;4989640;28;20599;-57
2023/06/20 06:25:01;;;;;;;6.80;6.30;;;19.60;99.90;;;;;;4995838;28;20499;-57
2023/06/20 06:27:29;;;;;;;6.70;6.20;;;19.60;99.90;;;;;;4995443;28;20563;-56
2023/06/20 06:29:58;;;;;;;6.73;6.23;;;19.70;99.90;;;;;;4998254;28;20571;-57
2023/06/20 06:32:27;;;;;;;6.40;6.00;;;19.90;99.90;;;;;;4993738;28;21085;-57
2023/06/20 06:34:59;;;;;;;6.93;6.40;;;20.00;99.90;;;;;;4995059;28;20521;-57
2023/06/20 06:37:28;;;;;;;6.83;6.30;;;20.10;99.90;;;;;;4993815;28;21012;-57
2023/06/20 06:39:58;;;;;;;7.17;6.43;;;20.10;99.90;;;;;;4994087;28;20569;-57
2023/06/20 06:42:26;;;;;;;7.47;6.77;;;20.10;99.90;;;;;;4995853;28;20488;-57
2023/06/20 06:44:54;;;;;;;6.77;6.27;;;20.20;99.90;;;;;;4994935;28;20484;-57
2023/06/20 06:47:22;;;;;;;6.40;6.00;;;20.30;99.90;;;;;;4992033;28;20567;-57
2023/06/20 06:49:50;;;;;;;6.93;6.40;;;20.30;99.90;;;;;;4990350;28;21052;-57
2023/06/20 06:52:18;;;;;;;7.10;6.60;;;20.40;99.90;;;;;;4988455;28;20497;-57
2023/06/20 06:54:46;;;;;;;7.10;6.60;;;20.40;99.90;;;;;;4997123;28;20488;-57
2023/06/20 06:57:16;;;;;;;7.17;6.47;;;20.40;99.90;;;;;;4993676;28;20472;-57
2023/06/20 06:59:44;;;;;;;6.83;6.27;;;20.50;99.90;;;;;;4994556;28;20552;-57
2023/06/20 07:02:13;;;;;;;7.30;6.80;;;20.60;99.90;;;;;;4995674;28;21959;-57
2023/06/20 07:04:41;;;;;;;7.23;6.50;;;20.70;99.90;;;;;;4997367;28;21146;-57
2023/06/20 07:07:09;;;;;;;6.70;6.20;;;20.80;99.90;;;;;;5000357;28;20480;-56
2023/06/20 07:09:37;;;;;;;5.53;5.13;;;20.80;99.90;;;;;;4993488;28;20898;-57
2023/06/20 07:12:06;;;;;;;5.20;4.80;;;20.90;99.90;;;;;;4995384;28;20499;-58
2023/06/20 07:14:35;;;;;;;5.10;4.77;;;21.00;99.90;;;;;;4996055;28;21339;-57
2023/06/20 07:17:04;;;;;;;6.23;5.63;;;21.10;99.90;;;;;;4997009;28;20468;-57
2023/06/20 07:19:33;;;;;;;6.07;5.47;;;21.10;99.90;;;;;;4999721;28;20471;-57
2023/06/20 07:22:02;;;;;;;6.57;5.97;;;21.20;99.90;;;;;;4999968;28;20517;-58
2023/06/20 07:24:30;;;;;;;7.13;6.53;;;21.20;99.90;;;;;;4992685;28;20489;-57
2023/06/20 07:26:59;;;;;;;5.50;5.10;;;21.30;99.90;;;;;;5002726;28;20469;-58
2023/06/20 07:29:27;;;;;;;5.10;4.70;;;21.30;99.90;;;;;;5006568;28;20507;-58
2023/06/20 07:31:56;;;;;;;5.83;5.33;;;21.40;99.90;;;;;;5005114;28;20508;-57
2023/06/20 07:34:24;;;;;;;5.50;5.10;;;21.50;99.90;;;;;;5001422;28;20500;-59
2023/06/20 07:36:52;;;;;;;5.50;5.10;;;21.60;99.90;;;;;;4996252;28;20471;-61
2023/06/20 07:39:20;;;;;;;6.90;5.37;;;21.70;99.90;;;;;;5001101;28;20469;-59
2023/06/20 07:41:48;;;;;;;5.50;5.00;;;21.80;99.90;;;;;;4993635;28;20592;-59
2023/06/20 07:44:16;;;;;;;5.30;4.90;;;21.80;99.90;;;;;;4996797;28;20504;-59
2023/06/20 07:46:44;;;;;;;6.13;5.60;;;21.90;99.90;;;;;;4996744;28;20464;-59
2023/06/20 07:49:14;;;;;;;5.93;5.30;;;22.00;99.90;;;;;;4999880;28;20472;-59
2023/06/20 07:51:42;;;;;;;5.60;5.20;;;22.00;99.90;;;;;;4997879;28;20542;-59
2023/06/20 07:54:10;;;;;;;6.03;5.43;;;22.10;99.90;;;;;;4992489;28;20571;-60
2023/06/20 07:56:38;;;;;;;5.80;5.40;;;22.20;99.90;;;;;;4996174;28;21294;-60
2023/06/20 07:59:06;;;;;;;5.73;5.33;;;22.30;99.90;;;;;;4999837;28;20567;-59
2023/06/20 08:01:34;;;;;;;5.90;5.50;;;22.30;99.90;;;;;;4999510;28;20476;-59
2023/06/20 08:04:02;;;;;;;5.50;5.10;;;22.40;99.90;;;;;;4995827;28;20492;-60
2023/06/20 08:06:32;;;;;;;7.93;5.90;;;22.50;99.90;;;;;;5000151;28;21105;-61
2023/06/20 08:09:00;;;;;;;6.33;5.93;;;22.60;99.90;;;;;;4997858;28;20488;-60
2023/06/20 08:11:29;;;;;;;6.03;5.63;;;22.70;99.90;;;;;;4995223;28;20492;-60
2023/06/20 08:13:57;;;;;;;5.70;5.20;;;22.80;99.90;;;;;;4996733;28;20554;-57
2023/06/20 08:16:25;;;;;;;5.60;5.07;;;22.80;99.90;;;;;;4996760;28;20540;-57
2023/06/20 08:18:53;;;;;;;5.80;5.30;;;23.00;99.90;;;;;;4990500;28;20498;-57
2023/06/20 08:21:21;;;;;;;6.20;5.70;;;23.10;99.90;;;;;;4994424;28;20583;-57
2023/06/20 08:23:50;;;;;;;5.60;5.10;;;23.20;99.90;;;;;;4994798;28;20516;-58
2023/06/20 08:26:19;;;;;;;5.70;5.30;;;23.30;99.90;;;;;;5001024;28;20556;-58
2023/06/20 08:28:46;;;;;;;6.00;5.60;;;23.50;99.90;;;;;;4996857;28;20487;-58
2023/06/20 08:31:15;;;;;;;5.83;5.43;;;23.60;99.90;;;;;;4998626;28;20515;-57
2023/06/20 08:33:43;;;;;;;8.07;5.60;;;23.70;99.90;;;;;;4998201;28;20929;-57
2023/06/20 08:36:11;;;;;;;7.10;6.53;;;23.80;99.90;;;;;;4987626;28;20512;-57
2023/06/20 08:38:39;;;;;;;5.97;5.47;;;23.90;99.90;;;;;;4995223;28;20505;-58
2023/06/20 08:41:11;;;;;;;6.20;5.70;;;24.00;99.90;;;;;;4993553;28;20527;-57
2023/06/20 08:43:40;;;;;;;5.77;5.37;;;24.10;99.90;;;;;;4996435;28;20490;-57
2023/06/20 08:46:08;;;;;;;6.63;5.70;;;24.20;99.90;;;;;;4992356;28;20468;-58
2023/06/20 08:48:36;;;;;;;6.80;6.00;;;24.20;99.90;;;;;;4997021;28;20602;-57
2023/06/20 08:51:04;;;;;;;6.60;6.10;;;24.20;99.90;;;;;;4991736;28;20556;-57
2023/06/20 08:53:33;;;;;;;6.27;5.87;;;24.20;99.90;;;;;;4996164;28;20491;-57
2023/06/20 08:56:03;;;;;;;6.20;5.70;;;24.20;99.90;;;;;;4993497;28;20492;-58
2023/06/20 08:58:33;;;;;;;6.27;5.77;;;24.20;99.90;;;;;;4992639;28;20567;-57
2023/06/20 09:01:01;;;;;;;5.97;5.47;;;24.20;99.90;;;;;;4990829;28;20488;-57
2023/06/20 09:03:29;;;;;;;6.10;5.70;;;24.20;99.90;;;;;;4986131;28;20479;-58
2023/06/20 09:05:57;;;;;;;5.50;5.00;;;24.20;99.90;;;;;;4991931;28;23392;-58
2023/06/20 09:08:35;;;;;;;6.53;5.90;;;24.10;99.90;;;;;;4992089;28;20504;-57
2023/06/20 09:11:07;;;;;;;5.93;5.53;;;24.20;99.90;;;;;;4992380;28;21176;-57
2023/06/20 09:13:37;;;;;;;6.60;6.10;;;24.10;99.90;;;;;;4993966;28;20499;-58
2023/06/20 09:16:07;;;;;;;7.00;6.47;;;24.10;99.90;;;;;;4993459;28;20886;-57
2023/06/20 09:18:35;;;;;;;7.20;6.60;;;24.10;99.90;;;;;;4997172;28;20523;-58
2023/06/20 09:21:04;;;;;;;6.53;6.03;;;24.10;99.90;;;;;;4993358;28;21183;-58
2023/06/20 09:23:33;;;;;;;7.00;6.47;;;24.10;99.90;;;;;;4995131;28;20607;-58
2023/06/20 09:26:15;;;;;;;7.70;6.83;;;24.20;99.90;;;;;;4999306;28;20566;-58
2023/06/20 09:28:45;;;;;;;7.17;6.57;;;24.30;99.90;;;;;;4995738;28;20914;-58
2023/06/20 09:31:14;;;;;;;7.57;6.97;;;24.40;99.90;;;;;;4993732;28;20480;-58
2023/06/20 09:33:42;;;;;;;6.50;6.00;;;24.50;99.90;;;;;;4994108;28;20532;-58
2023/06/20 09:36:14;;;;;;;7.37;6.67;;;24.60;99.90;;;;;;4997216;28;20896;-57
2023/06/20 09:38:44;;;;;;;7.37;6.67;;;24.70;99.90;;;;;;4993383;28;20474;-58
2023/06/20 09:41:16;;;;;;;6.90;6.40;;;24.80;99.90;;;;;;4997706;28;20894;-58
2023/06/20 09:43:46;;;;;;;6.77;6.27;;;24.90;99.90;;;;;;4991883;28;20487;-57
2023/06/20 09:46:14;;;;;;;7.43;6.83;;;24.90;99.90;;;;;;4992931;28;20472;-58
2023/06/20 09:48:44;;;;;;;7.13;6.60;;;25.00;99.90;;;;;;4989972;28;20491;-58
2023/06/20 09:51:12;;;;;;;7.40;6.90;;;25.10;99.90;;;;;;4995620;28;20538;-57
2023/06/20 09:53:45;;;;;;;7.27;6.57;;;25.20;99.90;;;;;;4993770;28;20488;-58
2023/06/20 09:56:16;;;;;;;7.23;6.67;;;25.20;99.90;;;;;;4996380;28;20490;-58
2023/06/20 09:58:47;;;;;;;7.07;6.57;;;25.30;99.90;;;;;;4997877;28;20555;-58
2023/06/20 10:01:20;;;;;;;6.87;6.37;;;25.40;99.90;;;;;;4990144;28;20551;-57
2023/06/20 10:03:49;;;;;;;7.13;6.63;;;25.50;99.90;;;;;;4987370;28;20957;-58
2023/06/20 10:06:18;;;;;;;7.63;7.03;;;25.60;99.90;;;;;;5002480;28;20464;-58
2023/06/20 10:08:47;;;;;;;6.90;6.40;;;25.80;99.90;;;;;;5011128;28;20464;-57
2023/06/20 10:11:15;;;;;;;7.37;6.80;;;25.90;99.90;;;;;;5011970;28;20484;-58
2023/06/20 10:13:45;;;;;;;7.87;7.23;;;25.90;99.90;;;;;;5004059;28;20520;-56
2023/06/20 10:16:15;;;;;;;7.23;6.73;;;26.00;99.90;;;;;;4997302;28;20488;-59
2023/06/20 10:18:43;;;;;;;7.80;7.17;;;26.10;99.90;;;;;;4999465;28;21221;-57
2023/06/20 10:21:15;;;;;;;7.60;7.10;;;26.30;99.90;;;;;;4991958;28;20535;-57
2023/06/20 10:23:45;;;;;;;9.27;7.00;;;26.40;99.90;;;;;;4991880;28;20578;-58
2023/06/20 10:26:13;;;;;;;7.40;6.90;;;26.50;99.90;;;;;;4993791;28;20496;-58
2023/06/20 10:28:42;;;;;;;7.83;7.30;;;26.60;99.90;;;;;;4994438;28;20440;-58
2023/06/20 10:31:10;;;;;;;7.93;7.33;;;26.70;99.90;;;;;;4996665;28;20579;-59
2023/06/20 10:33:40;;;;;;;8.27;7.47;;;26.70;99.90;;;;;;4995072;28;20452;-57
2023/06/20 10:36:09;;;;;;;7.80;7.30;;;26.70;99.90;;;;;;4992605;28;20524;-59
2023/06/20 10:38:38;;;;;;;8.23;7.53;;;26.60;99.90;;;;;;4995979;28;20483;-59
2023/06/20 10:41:12;;;;;;;8.53;7.80;;;26.60;99.90;;;;;;4996634;28;20462;-58
2023/06/20 10:43:48;;;;;;;8.20;7.60;;;26.40;99.90;;;;;;4997997;28;20499;-58
2023/06/20 10:46:17;;;;;;;8.23;7.63;;;26.40;99.90;;;;;;4997258;28;20818;-57
2023/06/20 10:48:46;;;;;;;8.30;7.80;;;26.30;99.90;;;;;;5001768;28;20502;-58
2023/06/20 10:51:14;;;;;;;8.77;8.17;;;26.20;99.90;;;;;;4997800;28;20567;-57
2023/06/20 10:53:42;;;;;;;8.43;7.73;;;26.20;99.90;;;;;;4998872;28;20581;-58
2023/06/20 10:56:23;;;;;;;8.70;8.00;;;26.10;99.90;;;;;;4993279;28;20923;-58
2023/06/20 10:58:51;;;;;;;9.17;8.57;;;26.10;99.90;;;;;;5001321;28;20567;-57
2023/06/20 11:01:19;;;;;;;7.80;7.20;;;26.10;99.90;;;;;;4996093;28;20484;-58
2023/06/20 11:03:49;;;;;;;8.43;7.93;;;26.10;99.90;;;;;;4996414;28;20510;-58
2023/06/20 11:06:18;;;;;;;8.40;7.80;;;26.10;99.90;;;;;;4992076;28;20542;-57
2023/06/20 11:08:46;;;;;;;8.23;7.70;;;26.10;99.90;;;;;;4988493;28;20477;-58
2023/06/20 11:11:14;;;;;;;8.40;7.80;;;26.10;99.90;;;;;;4995311;28;20586;-58
2023/06/20 11:13:43;;;;;;;8.63;7.93;;;26.10;99.90;;;;;;4993657;28;21012;-61
2023/06/20 11:16:18;;;;;;;8.73;8.13;;;26.00;99.90;;;;;;4998498;28;20473;-60
2023/06/20 11:18:46;;;;;;;9.30;8.60;;;26.00;99.90;;;;;;5003771;28;21066;-60
2023/06/20 11:21:18;;;;;;;9.40;8.70;;;26.00;99.90;;;;;;4998318;28;20538;-58
2023/06/20 11:23:46;;;;;;;8.93;7.93;;;26.00;99.90;;;;;;4996147;28;20485;-58
2023/06/20 11:26:14;;;;;;;8.40;7.80;;;25.90;99.90;;;;;;4996132;28;21042;-58
2023/06/20 11:28:42;;;;;;;8.27;7.73;;;25.90;99.90;;;;;;4988872;28;20909;-58
2023/06/20 11:31:11;;;;;;;8.27;7.67;;;26.00;99.90;;;;;;4996118;28;20579;-58
2023/06/20 11:33:39;;;;;;;9.83;8.87;;;26.00;99.90;;;;;;4997833;28;20473;-57
2023/06/20 11:36:07;;;;;;;8.40;7.70;;;26.00;99.90;;;;;;4997256;28;20496;-58
2023/06/20 11:38:40;;;;;;;9.77;8.87;;;26.00;99.90;;;;;;4994513;28;21065;-58
2023/06/20 11:41:09;;;;;;;7.87;7.27;;;26.10;99.90;;;;;;4993767;28;20557;-58
2023/06/20 11:43:39;;;;;;;8.70;8.10;;;26.10;99.90;;;;;;4997522;28;20503;-58
2023/06/20 11:46:09;;;;;;;8.23;7.73;;;26.10;99.90;;;;;;4983581;28;20475;-63
2023/06/20 11:48:37;;;;;;;8.00;7.50;;;26.20;99.90;;;;;;4988963;28;20985;-58
2023/06/20 11:51:06;;;;;;;8.30;7.70;;;26.30;99.90;;;;;;4993470;28;20485;-59
2023/06/20 11:53:37;;;;;;;8.90;8.20;;;26.30;99.90;;;;;;4991588;28;20563;-58
2023/06/20 11:56:07;;;;;;;8.90;8.10;;;26.40;99.90;;;;;;4990015;28;21128;-59
2023/06/20 11:58:39;;;;;;;8.73;8.13;;;26.50;99.90;;;;;;4987856;28;20508;-58
2023/06/20 12:01:10;;;;;;;8.87;8.27;;;26.60;99.90;;;;;;4988883;28;20484;-58
2023/06/20 12:03:41;;;;;;;7.80;7.30;;;26.60;99.90;;;;;;4985149;28;20486;-57
2023/06/20 12:06:26;;;;;;;9.07;8.37;;;26.60;99.90;;;;;;4985967;28;20476;-58
2023/06/20 12:08:57;;;;;;;8.53;7.93;;;26.70;99.90;;;;;;4991398;28;20504;-55
2023/06/20 12:11:25;;;;;;;8.00;7.50;;;26.60;99.90;;;;;;4999656;28;20480;-56
2023/06/20 12:13:53;;;;;;;8.47;7.87;;;26.70;99.90;;;;;;4999526;28;20498;-59
2023/06/20 12:16:22;;;;;;;8.40;7.80;;;26.60;99.90;;;;;;4990498;28;20506;-60
2023/06/20 12:18:53;;;;;;;8.00;7.50;;;26.70;99.90;;;;;;4993320;28;20475;-59
2023/06/20 12:21:21;;;;;;;8.93;8.13;;;26.70;99.90;;;;;;4985893;28;20488;-60
2023/06/20 12:23:49;;;;;;;8.90;8.27;;;26.60;99.90;;;;;;4986954;28;20496;-61
2023/06/20 12:26:19;;;;;;;8.33;7.70;;;26.60;99.90;;;;;;4989978;28;20476;-60
2023/06/20 12:28:47;;;;;;;8.97;8.37;;;26.60;99.90;;;;;;4995303;28;20475;-60
2023/06/20 12:31:14;;;;;;;8.33;7.83;;;26.60;99.90;;;;;;4981239;28;21637;-59
2023/06/20 12:33:42;;;;;;;9.30;8.60;;;26.60;99.90;;;;;;4994331;28;20591;-57
2023/06/20 12:36:10;;;;;;;8.93;8.27;;;26.70;99.90;;;;;;4986090;28;20496;-57
2023/06/20 12:38:39;;;;;;;9.23;8.63;;;26.70;99.90;;;;;;4985384;28;21618;-57
2023/06/20 12:41:07;;;;;;;8.67;7.90;;;26.70;99.90;;;;;;4990736;28;20588;-58
2023/06/20 12:43:36;;;;;;;9.40;8.60;;;26.80;99.90;;;;;;4989326;28;20980;-58
2023/06/20 12:46:04;;;;;;;8.77;8.17;;;26.90;99.90;;;;;;4986936;28;20836;-59
2023/06/20 12:48:32;;;;;;;8.67;8.07;;;26.90;99.90;;;;;;4993643;28;20472;-57